sensor_id;sensor_type;location;lat;lon;timestamp;P1;durP1;ratioP1;P2;durP2;ratioP2
16660;SDS011;8444;52.012;5.048;2023-08-21T00:01:43;1.88;;;1.30;;
16660;SDS011;8444;52.012;5.048;2023-08-21T00:04:08;2.78;;;1.60;;
16660;SDS011;8444;52.012;5.048;2023-08-21T00:06:33;5.68;;;1.60;;
16660;SDS011;8444;52.012;5.048;2023-08-21T00:09:00;3.40;;;2.13;;
16660;SDS011;8444;52.012;5.048;2023-08-21T00:11:25;3.45;;;1.58;;
16660;SDS011;8444;52.012;5.048;2023-08-21T00:13:50;3.13;;;1.35;;
16660;SDS011;8444;52.012;5.048;2023-08-21T00:16:16;5.28;;;1.80;;
16660;SDS011;8444;52.012;5.048;2023-08-21T00:18:41;5.57;;;1.90;;
16660;SDS011;8444;52.012;5.048;2023-08-21T00:21:06;4.20;;;1.95;;
16660;SDS011;8444;52.012;5.048;2023-08-21T00:23:32;3.17;;;2.05;;
16660;SDS011;8444;52.012;5.048;2023-08-21T00:25:57;6.32;;;1.50;;
16660;SDS011;8444;52.012;5.048;2023-08-21T00:28:22;3.83;;;2.10;;
16660;SDS011;8444;52.012;5.048;2023-08-21T00:30:47;3.92;;;1.83;;
16660;SDS011;8444;52.012;5.048;2023-08-21T00:33:13;3.40;;;1.70;;
16660;SDS011;8444;52.012;5.048;2023-08-21T00:35:38;6.15;;;2.22;;
16660;SDS011;8444;52.012;5.048;2023-08-21T00:38:03;5.25;;;1.67;;
16660;SDS011;8444;52.012;5.048;2023-08-21T00:40:30;3.25;;;1.70;;
16660;SDS011;8444;52.012;5.048;2023-08-21T00:42:55;3.33;;;1.77;;
16660;SDS011;8444;52.012;5.048;2023-08-21T00:45:21;3.00;;;2.22;;
16660;SDS011;8444;52.012;5.048;2023-08-21T00:47:46;7.47;;;2.80;;
16660;SDS011;8444;52.012;5.048;2023-08-21T00:50:11;6.88;;;2.97;;
16660;SDS011;8444;52.012;5.048;2023-08-21T00:52:38;4.10;;;2.33;;
16660;SDS011;8444;52.012;5.048;2023-08-21T00:55:04;2.40;;;1.90;;
16660;SDS011;8444;52.012;5.048;2023-08-21T00:57:30;3.70;;;2.00;;
16660;SDS011;8444;52.012;5.048;2023-08-21T00:59:56;6.88;;;2.10;;
16660;SDS011;8444;52.012;5.048;2023-08-21T01:02:21;3.97;;;2.15;;
16660;SDS011;8444;52.012;5.048;2023-08-21T01:04:47;5.35;;;2.33;;
16660;SDS011;8444;52.012;5.048;2023-08-21T01:07:13;4.95;;;2.63;;
16660;SDS011;8444;52.012;5.048;2023-08-21T01:14:54;5.75;;;2.38;;
16660;SDS011;8444;52.012;5.048;2023-08-21T01:17:23;5.07;;;2.97;;
16660;SDS011;8444;52.012;5.048;2023-08-21T01:19:49;4.75;;;2.78;;
16660;SDS011;8444;52.012;5.048;2023-08-21T01:22:14;4.80;;;2.20;;
16660;SDS011;8444;52.012;5.048;2023-08-21T01:24:40;3.13;;;2.45;;
16660;SDS011;8444;52.012;5.048;2023-08-21T01:27:05;7.28;;;2.10;;
16660;SDS011;8444;52.012;5.048;2023-08-21T01:29:30;5.97;;;2.60;;
16660;SDS011;8444;52.012;5.048;2023-08-21T01:31:58;3.70;;;2.38;;
16660;SDS011;8444;52.012;5.048;2023-08-21T01:34:26;8.73;;;2.72;;
16660;SDS011;8444;52.012;5.048;2023-08-21T01:36:53;3.53;;;2.17;;
16660;SDS011;8444;52.012;5.048;2023-08-21T01:39:19;3.90;;;2.35;;
16660;SDS011;8444;52.012;5.048;2023-08-21T01:41:44;3.45;;;2.20;;
16660;SDS011;8444;52.012;5.048;2023-08-21T01:44:09;3.20;;;1.80;;
16660;SDS011;8444;52.012;5.048;2023-08-21T01:46:34;5.05;;;2.33;;
16660;SDS011;8444;52.012;5.048;2023-08-21T01:48:59;4.75;;;2.47;;
16660;SDS011;8444;52.012;5.048;2023-08-21T01:51:25;4.28;;;2.08;;
16660;SDS011;8444;52.012;5.048;2023-08-21T01:53:50;3.40;;;2.30;;
16660;SDS011;8444;52.012;5.048;2023-08-21T01:56:15;6.25;;;2.03;;
16660;SDS011;8444;52.012;5.048;2023-08-21T01:58:40;5.97;;;1.90;;
16660;SDS011;8444;52.012;5.048;2023-08-21T02:01:06;6.43;;;2.83;;
16660;SDS011;8444;52.012;5.048;2023-08-21T02:03:31;6.43;;;1.90;;
16660;SDS011;8444;52.012;5.048;2023-08-21T02:05:56;4.53;;;1.63;;
16660;SDS011;8444;52.012;5.048;2023-08-21T02:08:22;5.00;;;1.77;;
16660;SDS011;8444;52.012;5.048;2023-08-21T02:10:48;3.78;;;1.67;;
16660;SDS011;8444;52.012;5.048;2023-08-21T02:13:14;3.20;;;1.50;;
16660;SDS011;8444;52.012;5.048;2023-08-21T02:15:39;5.10;;;1.98;;
16660;SDS011;8444;52.012;5.048;2023-08-21T02:18:04;3.50;;;1.80;;
16660;SDS011;8444;52.012;5.048;2023-08-21T02:20:29;5.65;;;2.47;;
16660;SDS011;8444;52.012;5.048;2023-08-21T02:22:55;4.32;;;1.70;;
16660;SDS011;8444;52.012;5.048;2023-08-21T02:25:20;10.85;;;2.03;;
16660;SDS011;8444;52.012;5.048;2023-08-21T02:27:45;4.55;;;2.22;;
16660;SDS011;8444;52.012;5.048;2023-08-21T02:30:10;3.45;;;1.85;;
16660;SDS011;8444;52.012;5.048;2023-08-21T02:32:36;6.78;;;2.25;;
16660;SDS011;8444;52.012;5.048;2023-08-21T02:35:03;5.43;;;2.65;;
16660;SDS011;8444;52.012;5.048;2023-08-21T02:37:28;3.45;;;2.20;;
16660;SDS011;8444;52.012;5.048;2023-08-21T02:39:53;5.97;;;2.05;;
16660;SDS011;8444;52.012;5.048;2023-08-21T02:42:19;8.52;;;1.88;;
16660;SDS011;8444;52.012;5.048;2023-08-21T02:44:44;4.88;;;2.10;;
16660;SDS011;8444;52.012;5.048;2023-08-21T02:47:09;3.53;;;2.00;;
16660;SDS011;8444;52.012;5.048;2023-08-21T02:49:34;4.28;;;2.15;;
16660;SDS011;8444;52.012;5.048;2023-08-21T02:52:00;3.58;;;2.10;;
16660;SDS011;8444;52.012;5.048;2023-08-21T02:54:25;3.97;;;2.08;;
16660;SDS011;8444;52.012;5.048;2023-08-21T02:56:50;5.95;;;2.10;;
16660;SDS011;8444;52.012;5.048;2023-08-21T02:59:15;6.43;;;3.03;;
16660;SDS011;8444;52.012;5.048;2023-08-21T03:01:41;4.43;;;2.10;;
16660;SDS011;8444;52.012;5.048;2023-08-21T03:04:06;8.88;;;2.47;;
16660;SDS011;8444;52.012;5.048;2023-08-21T03:06:31;6.30;;;2.67;;
16660;SDS011;8444;52.012;5.048;2023-08-21T03:08:56;6.05;;;2.53;;
16660;SDS011;8444;52.012;5.048;2023-08-21T03:11:21;3.53;;;1.90;;
16660;SDS011;8444;52.012;5.048;2023-08-21T03:13:47;3.17;;;2.35;;
16660;SDS011;8444;52.012;5.048;2023-08-21T03:16:12;6.95;;;3.00;;
16660;SDS011;8444;52.012;5.048;2023-08-21T03:18:53;6.78;;;3.05;;
16660;SDS011;8444;52.012;5.048;2023-08-21T03:21:18;3.72;;;2.92;;
16660;SDS011;8444;52.012;5.048;2023-08-21T03:23:43;5.55;;;2.42;;
16660;SDS011;8444;52.012;5.048;2023-08-21T03:26:09;10.50;;;2.30;;
16660;SDS011;8444;52.012;5.048;2023-08-21T03:28:34;8.60;;;3.35;;
16660;SDS011;8444;52.012;5.048;2023-08-21T03:30:59;6.18;;;2.67;;
16660;SDS011;8444;52.012;5.048;2023-08-21T03:33:25;4.25;;;2.45;;
16660;SDS011;8444;52.012;5.048;2023-08-21T03:35:53;5.00;;;2.65;;
16660;SDS011;8444;52.012;5.048;2023-08-21T03:38:18;3.25;;;2.22;;
16660;SDS011;8444;52.012;5.048;2023-08-21T03:40:43;7.57;;;2.33;;
16660;SDS011;8444;52.012;5.048;2023-08-21T03:43:09;5.65;;;2.40;;
16660;SDS011;8444;52.012;5.048;2023-08-21T03:45:34;3.08;;;1.92;;
16660;SDS011;8444;52.012;5.048;2023-08-21T03:47:59;4.63;;;2.50;;
16660;SDS011;8444;52.012;5.048;2023-08-21T03:50:24;4.05;;;1.98;;
16660;SDS011;8444;52.012;5.048;2023-08-21T03:52:49;4.63;;;2.25;;
16660;SDS011;8444;52.012;5.048;2023-08-21T03:55:15;5.50;;;2.10;;
16660;SDS011;8444;52.012;5.048;2023-08-21T03:57:40;4.75;;;2.08;;
16660;SDS011;8444;52.012;5.048;2023-08-21T04:00:05;2.33;;;1.77;;
16660;SDS011;8444;52.012;5.048;2023-08-21T04:02:32;4.93;;;2.08;;
16660;SDS011;8444;52.012;5.048;2023-08-21T04:04:58;7.78;;;3.28;;
16660;SDS011;8444;52.012;5.048;2023-08-21T04:07:23;4.53;;;2.38;;
16660;SDS011;8444;52.012;5.048;2023-08-21T04:09:48;2.63;;;2.08;;
16660;SDS011;8444;52.012;5.048;2023-08-21T04:12:13;9.48;;;2.35;;
16660;SDS011;8444;52.012;5.048;2023-08-21T04:14:38;7.22;;;2.90;;
16660;SDS011;8444;52.012;5.048;2023-08-21T04:17:04;2.40;;;1.95;;
16660;SDS011;8444;52.012;5.048;2023-08-21T04:19:29;6.28;;;2.75;;
16660;SDS011;8444;52.012;5.048;2023-08-21T04:21:57;3.65;;;2.35;;
16660;SDS011;8444;52.012;5.048;2023-08-21T04:24:23;3.65;;;2.13;;
16660;SDS011;8444;52.012;5.048;2023-08-21T04:26:49;5.05;;;2.20;;
16660;SDS011;8444;52.012;5.048;2023-08-21T04:29:14;4.97;;;2.22;;
16660;SDS011;8444;52.012;5.048;2023-08-21T04:31:39;3.25;;;2.45;;
16660;SDS011;8444;52.012;5.048;2023-08-21T04:34:04;6.32;;;2.28;;
16660;SDS011;8444;52.012;5.048;2023-08-21T04:36:30;4.53;;;2.05;;
16660;SDS011;8444;52.012;5.048;2023-08-21T04:38:55;5.78;;;2.10;;
16660;SDS011;8444;52.012;5.048;2023-08-21T04:41:21;3.35;;;1.88;;
16660;SDS011;8444;52.012;5.048;2023-08-21T04:43:46;5.65;;;2.72;;
16660;SDS011;8444;52.012;5.048;2023-08-21T04:46:11;3.95;;;2.17;;
16660;SDS011;8444;52.012;5.048;2023-08-21T04:48:36;10.82;;;3.15;;
16660;SDS011;8444;52.012;5.048;2023-08-21T04:51:02;7.85;;;2.95;;
16660;SDS011;8444;52.012;5.048;2023-08-21T04:53:27;7.50;;;2.75;;
16660;SDS011;8444;52.012;5.048;2023-08-21T04:55:52;7.35;;;2.15;;
16660;SDS011;8444;52.012;5.048;2023-08-21T04:58:17;3.22;;;2.30;;
16660;SDS011;8444;52.012;5.048;2023-08-21T05:00:44;5.40;;;2.50;;
16660;SDS011;8444;52.012;5.048;2023-08-21T05:03:09;4.22;;;2.40;;
16660;SDS011;8444;52.012;5.048;2023-08-21T05:05:35;4.03;;;2.53;;
16660;SDS011;8444;52.012;5.048;2023-08-21T05:08:00;2.83;;;2.08;;
16660;SDS011;8444;52.012;5.048;2023-08-21T05:10:25;4.70;;;2.42;;
16660;SDS011;8444;52.012;5.048;2023-08-21T05:12:50;2.40;;;1.92;;
16660;SDS011;8444;52.012;5.048;2023-08-21T05:15:16;3.40;;;2.15;;
16660;SDS011;8444;52.012;5.048;2023-08-21T05:17:41;4.75;;;2.28;;
16660;SDS011;8444;52.012;5.048;2023-08-21T05:20:07;4.38;;;2.72;;
16660;SDS011;8444;52.012;5.048;2023-08-21T05:22:32;6.57;;;2.90;;
16660;SDS011;8444;52.012;5.048;2023-08-21T05:24:57;6.68;;;3.00;;
16660;SDS011;8444;52.012;5.048;2023-08-21T05:27:22;4.07;;;2.80;;
16660;SDS011;8444;52.012;5.048;2023-08-21T05:29:48;5.93;;;2.70;;
16660;SDS011;8444;52.012;5.048;2023-08-21T05:32:15;8.60;;;2.20;;
16660;SDS011;8444;52.012;5.048;2023-08-21T05:34:41;7.32;;;2.33;;
16660;SDS011;8444;52.012;5.048;2023-08-21T05:37:06;7.40;;;3.10;;
16660;SDS011;8444;52.012;5.048;2023-08-21T05:39:32;8.63;;;2.47;;
16660;SDS011;8444;52.012;5.048;2023-08-21T05:41:57;5.95;;;3.20;;
16660;SDS011;8444;52.012;5.048;2023-08-21T05:44:23;5.15;;;2.63;;
16660;SDS011;8444;52.012;5.048;2023-08-21T05:46:48;4.70;;;3.15;;
16660;SDS011;8444;52.012;5.048;2023-08-21T05:49:14;6.00;;;2.58;;
16660;SDS011;8444;52.012;5.048;2023-08-21T05:51:39;7.32;;;2.28;;
16660;SDS011;8444;52.012;5.048;2023-08-21T05:54:04;5.10;;;2.55;;
16660;SDS011;8444;52.012;5.048;2023-08-21T05:56:29;3.42;;;2.35;;
16660;SDS011;8444;52.012;5.048;2023-08-21T05:58:55;3.97;;;2.05;;
16660;SDS011;8444;52.012;5.048;2023-08-21T06:01:20;7.63;;;2.70;;
16660;SDS011;8444;52.012;5.048;2023-08-21T06:03:45;9.32;;;3.40;;
16660;SDS011;8444;52.012;5.048;2023-08-21T06:06:10;4.20;;;2.70;;
16660;SDS011;8444;52.012;5.048;2023-08-21T06:08:36;7.15;;;2.60;;
16660;SDS011;8444;52.012;5.048;2023-08-21T06:11:01;6.32;;;3.33;;
16660;SDS011;8444;52.012;5.048;2023-08-21T06:13:26;10.68;;;3.60;;
16660;SDS011;8444;52.012;5.048;2023-08-21T06:15:52;8.20;;;3.97;;
16660;SDS011;8444;52.012;5.048;2023-08-21T06:18:17;7.93;;;4.20;;
16660;SDS011;8444;52.012;5.048;2023-08-21T06:20:43;7.18;;;3.00;;
16660;SDS011;8444;52.012;5.048;2023-08-21T06:23:11;10.05;;;3.40;;
16660;SDS011;8444;52.012;5.048;2023-08-21T06:25:36;5.88;;;2.60;;
16660;SDS011;8444;52.012;5.048;2023-08-21T06:28:02;4.95;;;2.33;;
16660;SDS011;8444;52.012;5.048;2023-08-21T06:30:27;4.45;;;2.63;;
16660;SDS011;8444;52.012;5.048;2023-08-21T06:32:53;8.43;;;2.53;;
16660;SDS011;8444;52.012;5.048;2023-08-21T06:35:18;7.60;;;2.90;;
16660;SDS011;8444;52.012;5.048;2023-08-21T06:37:43;6.03;;;2.42;;
16660;SDS011;8444;52.012;5.048;2023-08-21T06:40:08;4.55;;;2.15;;
16660;SDS011;8444;52.012;5.048;2023-08-21T06:42:34;5.72;;;2.45;;
16660;SDS011;8444;52.012;5.048;2023-08-21T06:44:59;4.53;;;2.95;;
16660;SDS011;8444;52.012;5.048;2023-08-21T06:47:24;9.48;;;2.92;;
16660;SDS011;8444;52.012;5.048;2023-08-21T06:49:49;6.72;;;2.53;;
16660;SDS011;8444;52.012;5.048;2023-08-21T06:52:15;6.55;;;2.92;;
16660;SDS011;8444;52.012;5.048;2023-08-21T06:54:40;6.60;;;2.10;;
16660;SDS011;8444;52.012;5.048;2023-08-21T06:57:06;6.97;;;3.28;;
16660;SDS011;8444;52.012;5.048;2023-08-21T06:59:31;5.53;;;2.95;;
16660;SDS011;8444;52.012;5.048;2023-08-21T07:02:00;6.35;;;2.58;;
16660;SDS011;8444;52.012;5.048;2023-08-21T07:04:26;4.10;;;3.25;;
16660;SDS011;8444;52.012;5.048;2023-08-21T07:06:51;6.57;;;2.88;;
16660;SDS011;8444;52.012;5.048;2023-08-21T07:09:16;7.85;;;3.40;;
16660;SDS011;8444;52.012;5.048;2023-08-21T07:11:41;7.30;;;2.92;;
16660;SDS011;8444;52.012;5.048;2023-08-21T07:14:07;4.78;;;2.28;;
16660;SDS011;8444;52.012;5.048;2023-08-21T07:16:33;9.40;;;2.88;;
16660;SDS011;8444;52.012;5.048;2023-08-21T07:18:58;5.28;;;3.17;;
16660;SDS011;8444;52.012;5.048;2023-08-21T07:21:23;9.15;;;3.08;;
16660;SDS011;8444;52.012;5.048;2023-08-21T07:23:48;7.13;;;2.83;;
16660;SDS011;8444;52.012;5.048;2023-08-21T07:26:14;4.43;;;2.63;;
16660;SDS011;8444;52.012;5.048;2023-08-21T07:28:39;6.95;;;3.17;;
16660;SDS011;8444;52.012;5.048;2023-08-21T07:31:04;6.07;;;2.92;;
16660;SDS011;8444;52.012;5.048;2023-08-21T07:33:29;7.10;;;3.13;;
16660;SDS011;8444;52.012;5.048;2023-08-21T07:36:01;6.30;;;3.35;;
16660;SDS011;8444;52.012;5.048;2023-08-21T07:38:27;6.50;;;3.20;;
16660;SDS011;8444;52.012;5.048;2023-08-21T07:41:01;5.68;;;2.90;;
16660;SDS011;8444;52.012;5.048;2023-08-21T07:43:27;6.75;;;2.85;;
16660;SDS011;8444;52.012;5.048;2023-08-21T07:45:52;5.32;;;2.55;;
16660;SDS011;8444;52.012;5.048;2023-08-21T07:48:17;6.53;;;2.37;;
16660;SDS011;8444;52.012;5.048;2023-08-21T07:50:49;5.70;;;2.72;;
16660;SDS011;8444;52.012;5.048;2023-08-21T07:53:14;6.70;;;2.85;;
16660;SDS011;8444;52.012;5.048;2023-08-21T07:55:40;7.22;;;3.05;;
16660;SDS011;8444;52.012;5.048;2023-08-21T07:58:06;6.40;;;3.20;;
16660;SDS011;8444;52.012;5.048;2023-08-21T08:00:31;6.13;;;2.53;;
16660;SDS011;8444;52.012;5.048;2023-08-21T08:02:56;10.52;;;2.95;;
16660;SDS011;8444;52.012;5.048;2023-08-21T08:05:22;6.13;;;2.72;;
16660;SDS011;8444;52.012;5.048;2023-08-21T08:07:47;3.83;;;2.20;;
16660;SDS011;8444;52.012;5.048;2023-08-21T08:10:12;6.25;;;2.53;;
16660;SDS011;8444;52.012;5.048;2023-08-21T08:12:40;9.38;;;3.40;;
16660;SDS011;8444;52.012;5.048;2023-08-21T08:15:06;7.65;;;2.83;;
16660;SDS011;8444;52.012;5.048;2023-08-21T08:17:31;12.98;;;3.17;;
16660;SDS011;8444;52.012;5.048;2023-08-21T08:19:56;6.25;;;3.15;;
16660;SDS011;8444;52.012;5.048;2023-08-21T08:22:21;6.25;;;3.22;;
16660;SDS011;8444;52.012;5.048;2023-08-21T08:24:47;7.15;;;2.72;;
16660;SDS011;8444;52.012;5.048;2023-08-21T08:27:12;5.90;;;2.65;;
16660;SDS011;8444;52.012;5.048;2023-08-21T08:29:37;5.53;;;2.43;;
16660;SDS011;8444;52.012;5.048;2023-08-21T08:32:02;7.25;;;2.40;;
16660;SDS011;8444;52.012;5.048;2023-08-21T08:34:28;5.72;;;2.40;;
16660;SDS011;8444;52.012;5.048;2023-08-21T08:36:53;5.90;;;1.87;;
16660;SDS011;8444;52.012;5.048;2023-08-21T08:39:18;7.03;;;2.60;;
16660;SDS011;8444;52.012;5.048;2023-08-21T08:41:52;5.38;;;2.42;;
16660;SDS011;8444;52.012;5.048;2023-08-21T08:44:19;5.55;;;2.45;;
16660;SDS011;8444;52.012;5.048;2023-08-21T08:46:44;3.15;;;2.00;;
16660;SDS011;8444;52.012;5.048;2023-08-21T08:49:09;8.10;;;3.15;;
16660;SDS011;8444;52.012;5.048;2023-08-21T08:51:36;5.60;;;3.13;;
16660;SDS011;8444;52.012;5.048;2023-08-21T08:54:02;5.03;;;2.63;;
16660;SDS011;8444;52.012;5.048;2023-08-21T08:56:28;5.90;;;2.78;;
16660;SDS011;8444;52.012;5.048;2023-08-21T08:58:54;8.43;;;2.25;;
16660;SDS011;8444;52.012;5.048;2023-08-21T09:01:19;7.55;;;2.17;;
16660;SDS011;8444;52.012;5.048;2023-08-21T09:03:44;6.00;;;2.03;;
16660;SDS011;8444;52.012;5.048;2023-08-21T09:06:09;7.75;;;2.13;;
16660;SDS011;8444;52.012;5.048;2023-08-21T09:08:35;9.00;;;1.70;;
16660;SDS011;8444;52.012;5.048;2023-08-21T09:11:01;5.00;;;2.43;;
16660;SDS011;8444;52.012;5.048;2023-08-21T09:13:26;6.57;;;2.20;;
16660;SDS011;8444;52.012;5.048;2023-08-21T09:15:54;3.05;;;1.60;;
16660;SDS011;8444;52.012;5.048;2023-08-21T09:18:22;9.88;;;2.28;;
16660;SDS011;8444;52.012;5.048;2023-08-21T09:20:48;3.33;;;1.60;;
16660;SDS011;8444;52.012;5.048;2023-08-21T09:23:14;3.50;;;1.70;;
16660;SDS011;8444;52.012;5.048;2023-08-21T09:25:39;3.60;;;1.83;;
16660;SDS011;8444;52.012;5.048;2023-08-21T09:28:05;5.55;;;2.17;;
16660;SDS011;8444;52.012;5.048;2023-08-21T09:30:43;3.15;;;1.08;;
16660;SDS011;8444;52.012;5.048;2023-08-21T09:33:08;4.30;;;1.42;;
16660;SDS011;8444;52.012;5.048;2023-08-21T09:35:34;5.53;;;1.52;;
16660;SDS011;8444;52.012;5.048;2023-08-21T09:38:00;3.30;;;1.20;;
16660;SDS011;8444;52.012;5.048;2023-08-21T09:40:25;10.63;;;2.28;;
16660;SDS011;8444;52.012;5.048;2023-08-21T09:42:54;4.85;;;1.77;;
16660;SDS011;8444;52.012;5.048;2023-08-21T09:45:20;9.02;;;2.08;;
16660;SDS011;8444;52.012;5.048;2023-08-21T09:47:45;4.18;;;1.70;;
16660;SDS011;8444;52.012;5.048;2023-08-21T09:50:11;2.67;;;1.30;;
16660;SDS011;8444;52.012;5.048;2023-08-21T09:52:36;3.30;;;1.10;;
16660;SDS011;8444;52.012;5.048;2023-08-21T09:55:02;3.88;;;1.30;;
16660;SDS011;8444;52.012;5.048;2023-08-21T09:57:28;2.35;;;0.85;;
16660;SDS011;8444;52.012;5.048;2023-08-21T09:59:54;6.28;;;1.38;;
16660;SDS011;8444;52.012;5.048;2023-08-21T10:02:20;4.05;;;0.90;;
16660;SDS011;8444;52.012;5.048;2023-08-21T10:04:46;6.80;;;1.00;;
16660;SDS011;8444;52.012;5.048;2023-08-21T10:07:13;2.28;;;0.80;;
16660;SDS011;8444;52.012;5.048;2023-08-21T10:09:41;5.40;;;1.00;;
16660;SDS011;8444;52.012;5.048;2023-08-21T10:12:08;2.22;;;0.47;;
16660;SDS011;8444;52.012;5.048;2023-08-21T10:14:34;2.50;;;1.13;;
16660;SDS011;8444;52.012;5.048;2023-08-21T10:17:00;4.00;;;0.70;;
16660;SDS011;8444;52.012;5.048;2023-08-21T10:19:30;2.08;;;0.70;;
16660;SDS011;8444;52.012;5.048;2023-08-21T10:21:55;2.78;;;0.90;;
16660;SDS011;8444;52.012;5.048;2023-08-21T10:24:27;3.40;;;0.70;;
16660;SDS011;8444;52.012;5.048;2023-08-21T10:26:57;1.95;;;0.68;;
16660;SDS011;8444;52.012;5.048;2023-08-21T10:29:23;2.65;;;0.63;;
16660;SDS011;8444;52.012;5.048;2023-08-21T10:31:48;4.38;;;1.27;;
16660;SDS011;8444;52.012;5.048;2023-08-21T10:34:25;4.70;;;1.30;;
16660;SDS011;8444;52.012;5.048;2023-08-21T10:37:08;6.95;;;1.27;;
16660;SDS011;8444;52.012;5.048;2023-08-21T10:39:35;4.28;;;1.08;;
16660;SDS011;8444;52.012;5.048;2023-08-21T10:42:04;3.50;;;1.35;;
16660;SDS011;8444;52.012;5.048;2023-08-21T10:47:13;5.35;;;1.35;;
16660;SDS011;8444;52.012;5.048;2023-08-21T10:49:40;4.38;;;1.15;;
16660;SDS011;8444;52.012;5.048;2023-08-21T10:52:05;3.40;;;1.33;;
16660;SDS011;8444;52.012;5.048;2023-08-21T10:54:42;5.32;;;1.08;;
16660;SDS011;8444;52.012;5.048;2023-08-21T10:57:07;4.43;;;1.35;;
16660;SDS011;8444;52.012;5.048;2023-08-21T10:59:32;3.67;;;1.20;;
16660;SDS011;8444;52.012;5.048;2023-08-21T11:01:58;3.50;;;1.77;;
16660;SDS011;8444;52.012;5.048;2023-08-21T11:04:23;7.50;;;1.40;;
16660;SDS011;8444;52.012;5.048;2023-08-21T11:06:50;3.33;;;1.20;;
16660;SDS011;8444;52.012;5.048;2023-08-21T11:09:16;3.78;;;1.40;;
16660;SDS011;8444;52.012;5.048;2023-08-21T11:11:42;4.47;;;1.85;;
16660;SDS011;8444;52.012;5.048;2023-08-21T11:14:08;3.67;;;1.83;;
16660;SDS011;8444;52.012;5.048;2023-08-21T11:16:33;2.40;;;1.48;;
16660;SDS011;8444;52.012;5.048;2023-08-21T11:19:02;6.13;;;1.53;;
16660;SDS011;8444;52.012;5.048;2023-08-21T11:21:28;9.25;;;1.70;;
16660;SDS011;8444;52.012;5.048;2023-08-21T11:23:53;3.80;;;1.53;;
16660;SDS011;8444;52.012;5.048;2023-08-21T11:26:18;5.17;;;1.67;;
16660;SDS011;8444;52.012;5.048;2023-08-21T11:28:43;5.63;;;2.10;;
16660;SDS011;8444;52.012;5.048;2023-08-21T11:31:09;2.72;;;1.70;;
16660;SDS011;8444;52.012;5.048;2023-08-21T11:33:37;7.82;;;1.95;;
16660;SDS011;8444;52.012;5.048;2023-08-21T11:36:02;3.22;;;1.88;;
16660;SDS011;8444;52.012;5.048;2023-08-21T11:38:27;3.47;;;1.83;;
16660;SDS011;8444;52.012;5.048;2023-08-21T11:40:59;4.95;;;2.80;;
16660;SDS011;8444;52.012;5.048;2023-08-21T11:43:41;6.60;;;2.05;;
16660;SDS011;8444;52.012;5.048;2023-08-21T11:46:07;3.70;;;1.95;;
16660;SDS011;8444;52.012;5.048;2023-08-21T11:48:33;4.43;;;1.63;;
16660;SDS011;8444;52.012;5.048;2023-08-21T11:51:00;4.03;;;1.35;;
16660;SDS011;8444;52.012;5.048;2023-08-21T11:53:31;4.35;;;1.45;;
16660;SDS011;8444;52.012;5.048;2023-08-21T11:55:56;7.43;;;1.70;;
16660;SDS011;8444;52.012;5.048;2023-08-21T11:58:21;2.47;;;1.20;;
16660;SDS011;8444;52.012;5.048;2023-08-21T12:00:47;4.30;;;1.55;;
16660;SDS011;8444;52.012;5.048;2023-08-21T12:03:12;7.33;;;1.67;;
16660;SDS011;8444;52.012;5.048;2023-08-21T12:05:42;4.25;;;1.48;;
16660;SDS011;8444;52.012;5.048;2023-08-21T12:08:08;4.28;;;1.77;;
16660;SDS011;8444;52.012;5.048;2023-08-21T12:10:33;2.87;;;1.53;;
16660;SDS011;8444;52.012;5.048;2023-08-21T12:12:59;3.97;;;1.10;;
16660;SDS011;8444;52.012;5.048;2023-08-21T12:15:24;8.38;;;1.70;;
16660;SDS011;8444;52.012;5.048;2023-08-21T12:17:49;5.95;;;1.30;;
16660;SDS011;8444;52.012;5.048;2023-08-21T12:20:14;3.70;;;1.40;;
16660;SDS011;8444;52.012;5.048;2023-08-21T12:22:40;3.17;;;1.10;;
16660;SDS011;8444;52.012;5.048;2023-08-21T12:25:07;4.68;;;1.40;;
16660;SDS011;8444;52.012;5.048;2023-08-21T12:27:32;3.88;;;1.48;;
16660;SDS011;8444;52.012;5.048;2023-08-21T12:29:57;4.17;;;1.40;;
16660;SDS011;8444;52.012;5.048;2023-08-21T12:32:22;4.37;;;1.27;;
16660;SDS011;8444;52.012;5.048;2023-08-21T12:34:48;2.43;;;1.23;;
16660;SDS011;8444;52.012;5.048;2023-08-21T12:37:13;2.63;;;1.00;;
16660;SDS011;8444;52.012;5.048;2023-08-21T12:39:38;3.25;;;1.60;;
16660;SDS011;8444;52.012;5.048;2023-08-21T12:42:03;2.75;;;0.98;;
16660;SDS011;8444;52.012;5.048;2023-08-21T12:44:29;3.53;;;1.55;;
16660;SDS011;8444;52.012;5.048;2023-08-21T12:46:55;2.13;;;1.42;;
16660;SDS011;8444;52.012;5.048;2023-08-21T12:49:20;4.07;;;1.37;;
16660;SDS011;8444;52.012;5.048;2023-08-21T12:51:45;3.47;;;1.35;;
16660;SDS011;8444;52.012;5.048;2023-08-21T12:54:10;2.93;;;1.30;;
16660;SDS011;8444;52.012;5.048;2023-08-21T12:56:36;1.48;;;0.90;;
16660;SDS011;8444;52.012;5.048;2023-08-21T12:59:01;2.75;;;0.98;;
16660;SDS011;8444;52.012;5.048;2023-08-21T13:01:28;3.30;;;0.88;;
16660;SDS011;8444;52.012;5.048;2023-08-21T13:03:53;4.25;;;1.65;;
16660;SDS011;8444;52.012;5.048;2023-08-21T13:06:18;3.83;;;1.17;;
16660;SDS011;8444;52.012;5.048;2023-08-21T13:08:43;3.77;;;1.27;;
16660;SDS011;8444;52.012;5.048;2023-08-21T13:11:09;2.13;;;0.80;;
16660;SDS011;8444;52.012;5.048;2023-08-21T13:13:35;3.60;;;0.70;;
16660;SDS011;8444;52.012;5.048;2023-08-21T13:16:00;4.22;;;0.60;;
16660;SDS011;8444;52.012;5.048;2023-08-21T13:18:26;4.65;;;0.60;;
16660;SDS011;8444;52.012;5.048;2023-08-21T13:20:51;3.97;;;1.20;;
16660;SDS011;8444;52.012;5.048;2023-08-21T13:23:16;1.25;;;0.82;;
16660;SDS011;8444;52.012;5.048;2023-08-21T13:25:42;1.93;;;0.60;;
16660;SDS011;8444;52.012;5.048;2023-08-21T13:28:07;1.80;;;0.60;;
16660;SDS011;8444;52.012;5.048;2023-08-21T13:30:32;1.67;;;0.87;;
16660;SDS011;8444;52.012;5.048;2023-08-21T13:32:57;2.83;;;1.00;;
16660;SDS011;8444;52.012;5.048;2023-08-21T13:35:23;1.83;;;0.82;;
16660;SDS011;8444;52.012;5.048;2023-08-21T13:37:49;1.27;;;0.77;;
16660;SDS011;8444;52.012;5.048;2023-08-21T13:40:14;3.25;;;0.70;;
16660;SDS011;8444;52.012;5.048;2023-08-21T13:42:42;2.50;;;0.65;;
16660;SDS011;8444;52.012;5.048;2023-08-21T13:45:08;1.95;;;0.80;;
16660;SDS011;8444;52.012;5.048;2023-08-21T13:47:34;1.90;;;0.73;;
16660;SDS011;8444;52.012;5.048;2023-08-21T13:49:59;1.15;;;0.60;;
16660;SDS011;8444;52.012;5.048;2023-08-21T13:52:24;4.27;;;0.80;;
16660;SDS011;8444;52.012;5.048;2023-08-21T13:54:50;2.08;;;0.40;;
16660;SDS011;8444;52.012;5.048;2023-08-21T13:57:15;2.40;;;0.50;;
16660;SDS011;8444;52.012;5.048;2023-08-21T13:59:40;2.10;;;0.80;;
16660;SDS011;8444;52.012;5.048;2023-08-21T14:02:06;3.95;;;0.57;;
16660;SDS011;8444;52.012;5.048;2023-08-21T14:04:32;1.93;;;0.60;;
16660;SDS011;8444;52.012;5.048;2023-08-21T14:06:57;1.48;;;0.57;;
16660;SDS011;8444;52.012;5.048;2023-08-21T14:09:22;1.98;;;0.68;;
16660;SDS011;8444;52.012;5.048;2023-08-21T14:11:47;3.00;;;0.90;;
16660;SDS011;8444;52.012;5.048;2023-08-21T14:14:13;2.90;;;0.90;;
16660;SDS011;8444;52.012;5.048;2023-08-21T14:16:38;0.83;;;0.50;;
16660;SDS011;8444;52.012;5.048;2023-08-21T14:19:03;2.08;;;0.60;;
16660;SDS011;8444;52.012;5.048;2023-08-21T14:21:28;2.80;;;1.10;;
16660;SDS011;8444;52.012;5.048;2023-08-21T14:23:53;3.63;;;0.97;;
16660;SDS011;8444;52.012;5.048;2023-08-21T14:26:19;1.58;;;0.57;;
16660;SDS011;8444;52.012;5.048;2023-08-21T14:28:44;4.00;;;0.87;;
16660;SDS011;8444;52.012;5.048;2023-08-21T14:31:15;5.38;;;1.00;;
16660;SDS011;8444;52.012;5.048;2023-08-21T14:33:40;3.30;;;0.70;;
16660;SDS011;8444;52.012;5.048;2023-08-21T14:36:05;2.60;;;0.83;;
16660;SDS011;8444;52.012;5.048;2023-08-21T14:38:30;3.35;;;0.55;;
16660;SDS011;8444;52.012;5.048;2023-08-21T14:40:56;3.63;;;1.27;;
16660;SDS011;8444;52.012;5.048;2023-08-21T14:43:21;4.93;;;1.73;;
16660;SDS011;8444;52.012;5.048;2023-08-21T14:45:46;4.03;;;1.10;;
16660;SDS011;8444;52.012;5.048;2023-08-21T14:48:12;4.28;;;1.13;;
16660;SDS011;8444;52.012;5.048;2023-08-21T14:50:37;3.63;;;0.90;;
16660;SDS011;8444;52.012;5.048;2023-08-21T14:53:02;6.77;;;1.10;;
16660;SDS011;8444;52.012;5.048;2023-08-21T14:55:27;1.85;;;0.68;;
16660;SDS011;8444;52.012;5.048;2023-08-21T14:57:53;2.40;;;0.93;;
16660;SDS011;8444;52.012;5.048;2023-08-21T15:00:18;6.90;;;0.80;;